Česky Dansk Deutsch English Español Suomi Français Magyar Italiano Nederlands norsk Polski Português svenska Türkçe

 

Het Weer

Chateaudun (Frankrijk)

20:30, 16 augustus 2016 (GMT)

NWNNE
WE
SWSSE
Home            
Chateaudun Orleans Chartres Toussus Le Noble Tours Romorantin Le Mans Villacoublay Alencon Paris-Orly Evreux Paris Met Center Melun Paris / Le Bourget Bourges Chateauroux Paris-Aeroport Charles De Gaulle Avord Rouen Creil Fafb Angers Auxerre Beauvais

Om een weerknop op uw website of weblog te plaatsen, copieer onderstaande code en plak die in uw pagina. In het eerste vakje staat HTML-code, in het tweede vakje UBB-code.


Add to Google

Details

Wind speed:2 bf, 4 kn, 2.1 m/s, 4.6 miles/h, 7.4 km/h
Wind direction:Variable
Visibility:Greater than 10000 m, 10 km, 32800 ft, 6.2 miles
Clouds:CAVOC
Temperature:23°C, 73°F
Gefühlte Temperatur:25°C, 77°F
Dew-point:12°C, 54°F
Atmospheric pressure:1013 hPa, 759.8 mmHg, 29.91 inHg, 1.000 atm
Relative humidity:49.9 %
METAR:LFOC 162030Z AUTO VRB04KT CAVOK 23/12 Q1013

Snelkoppelingen

Actuele weersinformatie van de hele wereld. Voeg locaties toe met het plus (+) symbool. Deze snelkoppelingen kunnen worden toegevoegd aan Google.

Lid van de Technetium groep

website free tracking
StatCounter NetStat W3C Validator

07-07-2022 02:57:43
astro.technetium.be money.technetium.be phote.technetium.be tafeltennistafel.technetium.be www.ligfiets.net